Time;durP1;ratioP1;P1;durP2;ratioP2;P2;SDS_P1;SDS_P2;PMS_P1;PMS_P2;Temp;Humidity;BMP_temperature;BMP_pressure;BME280_temperature;BME280_humidity;BME280_pressure;Samples;Min_cycle;Max_cycle;Signal;HPM_P1;HPM_P2
2021/12/23 00:00:33;;;;;;;23.48;12.98;;;;;;;;;;5008561;28;20140;-68
2021/12/23 00:03:00;;;;;;;23.75;12.80;;;;;;;;;;5023200;28;20061;-68
2021/12/23 00:05:26;;;;;;;20.10;11.80;;;;;;;;;;5021047;28;20661;-69
2021/12/23 00:07:52;;;;;;;21.55;12.52;;;;;;;;;;5010180;28;20068;-69
2021/12/23 00:10:19;;;;;;;22.00;13.00;;;;;;;;;;5022594;28;20056;-69
2021/12/23 00:12:45;;;;;;;23.92;13.30;;;;;;;;;;5014474;28;20068;-69
2021/12/23 00:15:36;;;;;;;24.25;12.63;;;;;;;;;;5023078;28;20058;-68
2021/12/23 00:18:57;;;;;;;22.90;13.38;;;;;;;;;;5014624;28;20045;-69
2021/12/23 00:23:35;;;;;;;21.35;12.00;;;;;;;;;;5014245;28;20056;-68
2021/12/23 00:26:02;;;;;;;21.42;12.52;;;;;;;;;;5022283;28;20049;-69
2021/12/23 00:28:29;;;;;;;22.27;13.38;;;;;;;;;;5022240;28;20050;-68
2021/12/23 00:30:56;;;;;;;23.80;13.43;;;;;;;;;;5013603;28;20149;-69
2021/12/23 00:33:23;;;;;;;22.00;13.18;;;;;;;;;;5016067;28;20053;-68
2021/12/23 00:35:50;;;;;;;25.35;13.00;;;;;;;;;;5008876;28;20053;-69
2021/12/23 00:38:22;;;;;;;22.83;13.40;;;;;;;;;;5022185;28;20398;-68
2021/12/23 00:40:48;;;;;;;24.80;14.30;;;;;;;;;;5005983;28;20049;-69
2021/12/23 00:43:15;;;;;;;26.15;12.95;;;;;;;;;;5002193;28;20057;-68
2021/12/23 00:45:41;;;;;;;21.23;12.73;;;;;;;;;;5001929;28;20050;-69
2021/12/23 00:48:07;;;;;;;20.25;12.70;;;;;;;;;;4989792;28;20086;-68
2021/12/23 00:50:34;;;;;;;23.58;14.00;;;;;;;;;;4997054;28;20446;-68
2021/12/23 00:53:05;;;;;;;21.83;12.60;;;;;;;;;;4994001;28;20045;-69
2021/12/23 00:55:31;;;;;;;24.52;13.25;;;;;;;;;;5002954;28;20058;-69
2021/12/23 00:57:59;;;;;;;23.80;13.77;;;;;;;;;;4993818;28;20054;-69
2021/12/23 01:00:26;;;;;;;23.63;14.10;;;;;;;;;;5016177;28;20050;-69
2021/12/23 01:02:52;;;;;;;26.00;13.73;;;;;;;;;;5009939;28;20282;-69
2021/12/23 01:05:20;;;;;;;23.75;13.63;;;;;;;;;;5011132;28;20075;-69
2021/12/23 01:07:47;;;;;;;25.27;13.60;;;;;;;;;;5022315;28;20398;-69
2021/12/23 01:10:15;;;;;;;21.85;11.80;;;;;;;;;;5012232;28;20160;-69
2021/12/23 01:12:48;;;;;;;24.08;12.70;;;;;;;;;;5018572;28;20056;-69
2021/12/23 01:15:38;;;;;;;25.45;13.65;;;;;;;;;;5009912;28;20751;-69
2021/12/23 01:18:11;;;;;;;22.75;13.05;;;;;;;;;;5016707;28;20050;-69
2021/12/23 01:20:39;;;;;;;27.15;14.02;;;;;;;;;;5013419;28;20418;-69
2021/12/23 01:23:07;;;;;;;25.58;14.40;;;;;;;;;;5022255;28;20064;-69
2021/12/23 01:25:35;;;;;;;27.92;14.18;;;;;;;;;;5023019;28;20053;-69
2021/12/23 01:28:02;;;;;;;23.15;12.00;;;;;;;;;;5013349;28;20095;-69
2021/12/23 01:30:30;;;;;;;23.00;13.75;;;;;;;;;;5015472;28;20053;-69
2021/12/23 01:32:56;;;;;;;23.50;13.60;;;;;;;;;;4998215;28;20503;-69
2021/12/23 01:35:24;;;;;;;21.63;13.68;;;;;;;;;;5001567;28;20490;-70
2021/12/23 01:37:50;;;;;;;22.15;12.85;;;;;;;;;;5007079;28;20374;-70
2021/12/23 01:40:18;;;;;;;24.55;14.55;;;;;;;;;;5021405;28;20041;-70
2021/12/23 01:42:45;;;;;;;20.77;12.88;;;;;;;;;;4999963;28;20057;-69
2021/12/23 01:45:13;;;;;;;23.92;13.50;;;;;;;;;;5008707;28;20057;-69
2021/12/23 01:47:40;;;;;;;26.83;13.32;;;;;;;;;;5018564;28;20072;-70
2021/12/23 01:50:07;;;;;;;23.08;12.18;;;;;;;;;;5012563;28;20041;-69
2021/12/23 01:52:34;;;;;;;23.98;14.63;;;;;;;;;;5021357;28;20449;-69
2021/12/23 01:55:01;;;;;;;24.02;14.23;;;;;;;;;;5006860;28;20053;-68
2021/12/23 01:57:33;;;;;;;24.95;12.80;;;;;;;;;;5015298;28;20055;-69
2021/12/23 02:00:00;;;;;;;29.65;14.45;;;;;;;;;;5016423;28;20046;-69
2021/12/23 02:02:27;;;;;;;24.17;14.30;;;;;;;;;;5013007;28;20481;-69
2021/12/23 02:04:53;;;;;;;22.58;12.85;;;;;;;;;;5020198;28;20053;-69
2021/12/23 02:07:19;;;;;;;24.67;13.13;;;;;;;;;;5012835;28;20053;-69
2021/12/23 02:09:46;;;;;;;25.50;14.38;;;;;;;;;;5019046;28;20064;-69
2021/12/23 02:12:12;;;;;;;23.92;14.45;;;;;;;;;;4993428;28;20057;-69
2021/12/23 02:14:38;;;;;;;26.13;14.38;;;;;;;;;;5001276;28;20054;-69
2021/12/23 02:17:05;;;;;;;25.00;14.15;;;;;;;;;;5001317;28;20065;-69
2021/12/23 02:19:31;;;;;;;22.70;12.63;;;;;;;;;;4995564;28;20096;-69
2021/12/23 02:21:57;;;;;;;25.50;14.23;;;;;;;;;;5020233;28;20829;-69
2021/12/23 02:24:25;;;;;;;24.65;13.68;;;;;;;;;;5008062;28;20136;-69
2021/12/23 02:26:52;;;;;;;28.63;14.80;;;;;;;;;;5015254;28;20061;-69
2021/12/23 02:29:18;;;;;;;23.77;13.43;;;;;;;;;;5012548;28;20057;-69
2021/12/23 02:31:48;;;;;;;24.63;13.52;;;;;;;;;;5017158;28;20049;-69
2021/12/23 02:34:15;;;;;;;24.80;14.23;;;;;;;;;;5000306;28;20561;-68
2021/12/23 02:36:47;;;;;;;23.17;13.27;;;;;;;;;;4992202;28;20053;-67
2021/12/23 02:39:13;;;;;;;25.50;14.25;;;;;;;;;;4999559;28;20054;-67
2021/12/23 02:41:43;;;;;;;25.42;13.95;;;;;;;;;;5001611;28;20183;-66
2021/12/23 02:44:11;;;;;;;26.02;13.82;;;;;;;;;;5002860;28;20793;-66
2021/12/23 02:46:37;;;;;;;26.07;14.00;;;;;;;;;;4991839;28;20434;-67
2021/12/23 02:49:03;;;;;;;23.65;13.57;;;;;;;;;;4993129;28;20038;-67
2021/12/23 02:51:30;;;;;;;25.73;14.18;;;;;;;;;;4998459;28;20061;-67
2021/12/23 02:53:56;;;;;;;29.63;14.52;;;;;;;;;;4999450;28;20513;-67
2021/12/23 02:56:22;;;;;;;22.45;12.77;;;;;;;;;;5008684;28;20058;-68
2021/12/23 02:58:49;;;;;;;24.00;13.10;;;;;;;;;;4995578;28;20050;-68
2021/12/23 03:01:17;;;;;;;21.58;13.70;;;;;;;;;;4999059;28;20078;-67
2021/12/23 03:03:44;;;;;;;24.38;13.88;;;;;;;;;;4986424;28;20131;-67
2021/12/23 03:06:11;;;;;;;25.75;13.40;;;;;;;;;;4997741;28;20532;-67
2021/12/23 03:08:41;;;;;;;27.55;14.85;;;;;;;;;;5002963;28;20072;-67
2021/12/23 03:11:09;;;;;;;23.25;13.95;;;;;;;;;;5010656;28;20064;-67
2021/12/23 03:13:35;;;;;;;24.35;13.63;;;;;;;;;;5004643;28;20745;-67
2021/12/23 03:16:03;;;;;;;25.52;14.93;;;;;;;;;;4991365;28;20049;-67
2021/12/23 03:18:29;;;;;;;27.08;14.88;;;;;;;;;;4999132;28;20537;-67
2021/12/23 03:20:56;;;;;;;24.30;13.95;;;;;;;;;;5010702;28;20520;-67
2021/12/23 03:23:23;;;;;;;23.83;14.18;;;;;;;;;;5012881;28;20053;-67
2021/12/23 03:25:49;;;;;;;26.85;14.60;;;;;;;;;;5001722;28;20398;-67
2021/12/23 03:28:16;;;;;;;27.38;13.95;;;;;;;;;;4993799;28;20053;-66
2021/12/23 03:30:42;;;;;;;26.45;14.05;;;;;;;;;;4998865;28;20058;-67
2021/12/23 03:33:09;;;;;;;26.65;14.27;;;;;;;;;;4990699;28;20455;-67
2021/12/23 03:35:35;;;;;;;26.33;14.73;;;;;;;;;;5016956;28;20073;-67
2021/12/23 03:38:02;;;;;;;26.98;14.75;;;;;;;;;;5016578;28;20052;-66
2021/12/23 03:40:29;;;;;;;25.55;14.85;;;;;;;;;;5007032;28;20543;-66
2021/12/23 03:42:56;;;;;;;26.40;13.82;;;;;;;;;;5015649;28;20065;-66
2021/12/23 03:45:22;;;;;;;26.05;15.05;;;;;;;;;;5005719;28;20042;-67
2021/12/23 03:47:50;;;;;;;26.35;14.30;;;;;;;;;;5014020;28;20879;-67
2021/12/23 03:50:17;;;;;;;27.25;15.02;;;;;;;;;;5017210;28;20080;-66
2021/12/23 03:52:44;;;;;;;25.90;15.27;;;;;;;;;;5006387;28;20068;-66
2021/12/23 03:55:10;;;;;;;25.48;14.80;;;;;;;;;;5016206;28;20649;-67
2021/12/23 03:57:37;;;;;;;26.65;14.52;;;;;;;;;;5020153;28;20049;-67
2021/12/23 04:00:08;;;;;;;25.20;14.35;;;;;;;;;;5016567;28;20418;-67
2021/12/23 04:02:34;;;;;;;26.70;14.93;;;;;;;;;;5014696;28;20060;-66
2021/12/23 04:05:02;;;;;;;33.03;15.45;;;;;;;;;;5022861;28;20053;-67
2021/12/23 04:07:28;;;;;;;22.88;13.43;;;;;;;;;;5013969;28;20049;-66
2021/12/23 04:09:54;;;;;;;29.10;15.35;;;;;;;;;;5022688;28;20057;-66
2021/12/23 04:12:21;;;;;;;27.77;14.00;;;;;;;;;;5014998;28;20561;-66
2021/12/23 04:14:48;;;;;;;28.23;15.30;;;;;;;;;;5021121;28;20050;-66
2021/12/23 04:17:14;;;;;;;25.02;14.55;;;;;;;;;;5022449;28;20054;-66
2021/12/23 04:19:43;;;;;;;26.60;14.60;;;;;;;;;;5013125;28;20464;-66
2021/12/23 04:22:09;;;;;;;25.42;15.10;;;;;;;;;;5018352;28;20049;-67
2021/12/23 04:24:36;;;;;;;25.30;14.40;;;;;;;;;;5002154;28;20049;-67
2021/12/23 04:27:02;;;;;;;25.95;14.85;;;;;;;;;;5013965;28;20337;-66
2021/12/23 04:29:28;;;;;;;26.30;15.20;;;;;;;;;;5023318;28;20080;-67
2021/12/23 04:31:55;;;;;;;26.65;16.17;;;;;;;;;;5013777;28;20045;-66
2021/12/23 04:34:21;;;;;;;26.05;14.32;;;;;;;;;;5022223;28;20045;-66
2021/12/23 04:36:47;;;;;;;29.80;14.95;;;;;;;;;;5010313;28;20060;-66
2021/12/23 04:39:14;;;;;;;26.00;14.35;;;;;;;;;;5018031;28;20057;-66
2021/12/23 04:41:40;;;;;;;25.05;13.80;;;;;;;;;;4998784;28;20073;-66
2021/12/23 04:44:06;;;;;;;30.25;16.02;;;;;;;;;;5000736;28;20053;-66
2021/12/23 04:46:33;;;;;;;25.48;15.45;;;;;;;;;;5002486;28;20046;-66
2021/12/23 04:48:59;;;;;;;25.75;15.63;;;;;;;;;;5006000;28;20529;-66
2021/12/23 04:51:25;;;;;;;26.75;15.55;;;;;;;;;;5017448;28;20049;-66
2021/12/23 04:53:52;;;;;;;27.38;16.08;;;;;;;;;;5002079;28;20045;-67
2021/12/23 04:56:20;;;;;;;28.33;14.65;;;;;;;;;;5027322;28;20397;-66
2021/12/23 04:58:46;;;;;;;25.95;14.48;;;;;;;;;;5039389;28;20052;-66
2021/12/23 05:01:28;;;;;;;25.00;14.40;;;;;;;;;;5043055;28;20041;-66
2021/12/23 05:03:55;;;;;;;29.65;14.43;;;;;;;;;;5031867;28;20052;-66
2021/12/23 05:06:21;;;;;;;24.40;14.30;;;;;;;;;;5016985;28;20052;-66
2021/12/23 05:08:48;;;;;;;24.50;14.88;;;;;;;;;;5024200;28;20049;-66
2021/12/23 05:11:16;;;;;;;25.83;15.25;;;;;;;;;;5017526;28;20060;-66
2021/12/23 05:13:49;;;;;;;28.75;16.08;;;;;;;;;;5024034;28;20140;-66
2021/12/23 05:16:16;;;;;;;25.85;15.60;;;;;;;;;;5008471;28;20053;-66
2021/12/23 05:18:43;;;;;;;29.75;15.07;;;;;;;;;;5022009;28;20045;-66
2021/12/23 05:21:09;;;;;;;25.00;13.75;;;;;;;;;;5007100;28;20049;-66
2021/12/23 05:23:36;;;;;;;29.90;15.73;;;;;;;;;;5016944;28;20494;-66
2021/12/23 05:26:05;;;;;;;31.08;16.45;;;;;;;;;;5023672;28;20068;-67
2021/12/23 05:28:32;;;;;;;37.50;16.88;;;;;;;;;;5012672;28;20057;-66
2021/12/23 05:30:59;;;;;;;31.83;15.95;;;;;;;;;;5017108;28;20098;-66
2021/12/23 05:33:26;;;;;;;32.42;17.25;;;;;;;;;;5003396;28;20502;-66
2021/12/23 05:35:55;;;;;;;29.77;15.70;;;;;;;;;;5023359;28;20097;-66
2021/12/23 05:38:22;;;;;;;35.08;16.67;;;;;;;;;;5023469;28;20413;-66
2021/12/23 05:40:48;;;;;;;33.85;18.08;;;;;;;;;;5006023;28;20053;-66
2021/12/23 05:43:15;;;;;;;31.00;17.25;;;;;;;;;;4999005;28;20050;-66
2021/12/23 05:45:41;;;;;;;32.28;18.73;;;;;;;;;;4990763;28;20056;-66
2021/12/23 05:48:07;;;;;;;31.73;17.80;;;;;;;;;;5020019;28;20057;-66
2021/12/23 05:50:34;;;;;;;31.27;16.38;;;;;;;;;;5014933;28;20060;-66
2021/12/23 05:53:01;;;;;;;31.52;15.93;;;;;;;;;;5023063;28;20050;-66
2021/12/23 05:55:27;;;;;;;36.85;18.70;;;;;;;;;;5023428;28;20045;-67
2021/12/23 05:57:53;;;;;;;32.78;17.90;;;;;;;;;;5008954;28;20049;-66
2021/12/23 06:00:25;;;;;;;28.20;16.48;;;;;;;;;;5018488;28;20053;-66
2021/12/23 06:02:52;;;;;;;34.33;17.80;;;;;;;;;;5000187;28;20081;-66
2021/12/23 06:05:19;;;;;;;32.00;17.95;;;;;;;;;;5006685;28;20062;-66
2021/12/23 06:07:46;;;;;;;34.00;17.63;;;;;;;;;;4994987;28;20042;-66
2021/12/23 06:10:14;;;;;;;35.22;17.63;;;;;;;;;;5005392;28;20060;-66
2021/12/23 06:12:40;;;;;;;30.83;17.70;;;;;;;;;;5016991;28;20438;-66
2021/12/23 06:15:07;;;;;;;29.52;16.92;;;;;;;;;;5014595;28;20049;-66
2021/12/23 06:17:34;;;;;;;32.33;17.27;;;;;;;;;;5022459;28;20426;-66
2021/12/23 06:20:00;;;;;;;30.42;16.52;;;;;;;;;;5013834;28;20454;-67
2021/12/23 06:22:27;;;;;;;36.25;18.23;;;;;;;;;;5002999;28;20057;-66
2021/12/23 06:24:53;;;;;;;33.28;18.85;;;;;;;;;;5007111;28;20060;-66
2021/12/23 06:27:20;;;;;;;35.78;18.05;;;;;;;;;;5017896;28;20060;-66
2021/12/23 06:29:46;;;;;;;35.95;17.67;;;;;;;;;;5021997;28;20064;-66
2021/12/23 06:32:13;;;;;;;31.55;18.35;;;;;;;;;;5004841;28;20057;-66
2021/12/23 06:34:39;;;;;;;32.00;16.67;;;;;;;;;;4998050;28;20073;-67
2021/12/23 06:37:06;;;;;;;34.88;17.55;;;;;;;;;;4994682;28;20049;-66
2021/12/23 06:39:33;;;;;;;37.08;17.83;;;;;;;;;;4999489;28;20050;-66
2021/12/23 06:41:59;;;;;;;35.60;18.15;;;;;;;;;;4989257;28;20062;-66
2021/12/23 06:44:26;;;;;;;35.40;18.25;;;;;;;;;;5002111;28;20049;-66
2021/12/23 06:46:52;;;;;;;35.58;18.98;;;;;;;;;;5012350;28;20049;-66
2021/12/23 06:49:18;;;;;;;34.22;18.42;;;;;;;;;;5016025;28;20057;-66
2021/12/23 06:51:45;;;;;;;34.58;18.20;;;;;;;;;;5022842;28;20049;-66
2021/12/23 06:54:17;;;;;;;37.58;17.30;;;;;;;;;;4989119;28;20049;-66
2021/12/23 06:56:44;;;;;;;39.40;18.58;;;;;;;;;;5001657;28;20045;-66
2021/12/23 06:59:14;;;;;;;33.65;18.40;;;;;;;;;;4977993;28;20054;-66
2021/12/23 07:01:40;;;;;;;41.80;20.60;;;;;;;;;;5006112;28;20073;-66
2021/12/23 07:04:16;;;;;;;34.97;15.68;;;;;;;;;;5002633;28;20100;-66
2021/12/23 07:06:48;;;;;;;36.10;17.70;;;;;;;;;;5003692;28;20059;-66
2021/12/23 07:09:15;;;;;;;32.58;17.95;;;;;;;;;;5017093;28;20065;-66
2021/12/23 07:11:41;;;;;;;34.90;18.02;;;;;;;;;;5013104;28;20053;-66
2021/12/23 07:14:07;;;;;;;38.13;19.38;;;;;;;;;;5022878;28;20454;-66
2021/12/23 07:16:37;;;;;;;34.75;19.20;;;;;;;;;;5013822;28;20058;-67
2021/12/23 07:19:04;;;;;;;35.08;18.30;;;;;;;;;;5022386;28;20053;-66
2021/12/23 07:21:31;;;;;;;34.85;18.27;;;;;;;;;;5010902;28;20462;-66
2021/12/23 07:23:57;;;;;;;38.92;19.08;;;;;;;;;;5015311;28;20065;-66
2021/12/23 07:26:24;;;;;;;36.22;18.65;;;;;;;;;;5022264;28;20049;-66
2021/12/23 07:28:50;;;;;;;32.45;17.30;;;;;;;;;;5014127;28;20060;-66
2021/12/23 07:31:16;;;;;;;35.72;17.95;;;;;;;;;;5022633;28;20076;-66
2021/12/23 07:33:43;;;;;;;36.70;18.92;;;;;;;;;;5006217;28;20050;-66
2021/12/23 07:36:09;;;;;;;35.10;18.80;;;;;;;;;;5015672;28;20630;-66
2021/12/23 07:38:36;;;;;;;39.33;19.38;;;;;;;;;;5000079;28;20054;-66
2021/12/23 07:41:02;;;;;;;31.88;17.20;;;;;;;;;;5008420;28;20154;-66
2021/12/23 07:46:02;;;;;;;34.10;18.50;;;;;;;;;;5009988;28;20490;-66
2021/12/23 07:48:29;;;;;;;34.30;18.60;;;;;;;;;;5021851;28;20061;-66
2021/12/23 07:50:56;;;;;;;34.25;18.40;;;;;;;;;;5015446;28;20064;-66
2021/12/23 07:53:22;;;;;;;33.83;18.67;;;;;;;;;;5021712;28;20054;-66
2021/12/23 07:55:49;;;;;;;32.65;17.08;;;;;;;;;;5011831;28;20056;-66
2021/12/23 07:58:15;;;;;;;37.97;17.95;;;;;;;;;;5022842;28;20064;-66
2021/12/23 08:00:42;;;;;;;32.47;17.30;;;;;;;;;;5017908;28;20556;-66
2021/12/23 08:03:08;;;;;;;38.22;18.90;;;;;;;;;;5016485;28;20064;-66
2021/12/23 08:05:35;;;;;;;34.15;17.08;;;;;;;;;;5021672;28;20060;-66
2021/12/23 08:08:02;;;;;;;36.63;18.02;;;;;;;;;;4996381;28;20382;-67
2021/12/23 08:10:29;;;;;;;31.92;17.35;;;;;;;;;;5010084;28;20061;-66
2021/12/23 08:12:55;;;;;;;34.35;17.90;;;;;;;;;;5016490;28;20097;-67
2021/12/23 08:15:21;;;;;;;34.05;17.48;;;;;;;;;;5020792;28;20498;-67
2021/12/23 08:17:48;;;;;;;40.00;19.20;;;;;;;;;;5025615;28;20431;-67
2021/12/23 08:20:15;;;;;;;37.58;18.02;;;;;;;;;;5015136;28;20095;-68
2021/12/23 08:22:42;;;;;;;32.47;16.50;;;;;;;;;;5024635;28;20060;-66
2021/12/23 08:25:09;;;;;;;35.70;17.80;;;;;;;;;;5002555;28;20137;-66
2021/12/23 08:27:35;;;;;;;34.05;17.92;;;;;;;;;;5014894;28;20517;-66
2021/12/23 08:30:06;;;;;;;34.65;18.70;;;;;;;;;;5013893;28;20313;-66
2021/12/23 08:32:32;;;;;;;33.83;18.25;;;;;;;;;;5030609;28;20077;-66
2021/12/23 08:34:59;;;;;;;37.67;18.08;;;;;;;;;;5005653;28;20061;-66
2021/12/23 08:37:25;;;;;;;36.88;19.50;;;;;;;;;;4997144;28;20529;-66
2021/12/23 08:39:53;;;;;;;34.53;18.25;;;;;;;;;;5003512;28;20494;-66
2021/12/23 08:42:20;;;;;;;38.43;19.50;;;;;;;;;;4992580;28;20050;-66
2021/12/23 08:44:46;;;;;;;38.88;20.52;;;;;;;;;;5006266;28;20068;-66
2021/12/23 08:47:13;;;;;;;34.10;16.55;;;;;;;;;;5019292;28;20151;-66
2021/12/23 08:49:43;;;;;;;36.05;18.90;;;;;;;;;;5038228;28;20061;-66
2021/12/23 08:52:10;;;;;;;34.33;17.55;;;;;;;;;;5037163;28;20049;-66
2021/12/23 08:54:36;;;;;;;30.00;15.95;;;;;;;;;;5010054;28;20046;-66
2021/12/23 08:57:04;;;;;;;36.40;17.70;;;;;;;;;;5014518;28;20509;-66
2021/12/23 08:59:31;;;;;;;34.17;18.10;;;;;;;;;;4998709;28;20057;-66
2021/12/23 09:01:57;;;;;;;35.53;17.45;;;;;;;;;;5004975;28;20072;-66
2021/12/23 09:04:24;;;;;;;41.80;19.40;;;;;;;;;;4998896;28;20060;-66
2021/12/23 09:06:50;;;;;;;32.80;17.73;;;;;;;;;;4992645;28;20084;-66
2021/12/23 09:09:17;;;;;;;35.95;18.48;;;;;;;;;;5019826;28;20417;-66
2021/12/23 09:11:43;;;;;;;37.33;18.30;;;;;;;;;;5011099;28;20055;-66
2021/12/23 09:14:10;;;;;;;36.47;18.33;;;;;;;;;;5018798;28;20088;-66
2021/12/23 09:16:38;;;;;;;37.58;18.55;;;;;;;;;;5001854;28;20045;-66
2021/12/23 09:19:05;;;;;;;42.97;19.73;;;;;;;;;;5020411;28;20049;-66
2021/12/23 09:21:32;;;;;;;37.65;19.10;;;;;;;;;;5018055;28;20505;-66
2021/12/23 09:24:00;;;;;;;36.90;19.40;;;;;;;;;;5010140;28;20107;-66
2021/12/23 09:26:27;;;;;;;39.33;19.02;;;;;;;;;;5019450;28;20052;-66
2021/12/23 09:34:06;;;;;;;38.95;18.30;;;;;;;;;;5016001;28;20355;-66
2021/12/23 09:36:33;;;;;;;37.28;19.27;;;;;;;;;;5020085;28;20402;-66
2021/12/23 09:38:59;;;;;;;37.88;18.60;;;;;;;;;;5009641;28;20492;-67
2021/12/23 09:41:25;;;;;;;37.05;19.08;;;;;;;;;;5017852;28;20053;-66
2021/12/23 09:43:52;;;;;;;42.17;19.50;;;;;;;;;;5013307;28;20387;-66
2021/12/23 09:46:20;;;;;;;34.20;18.58;;;;;;;;;;5015281;28;20053;-66
2021/12/23 09:48:47;;;;;;;42.90;20.35;;;;;;;;;;5017983;28;20061;-66
2021/12/23 09:51:15;;;;;;;37.95;19.17;;;;;;;;;;5010694;28;20049;-66
2021/12/23 09:53:43;;;;;;;35.87;18.50;;;;;;;;;;5018489;28;20513;-66
2021/12/23 09:56:10;;;;;;;35.53;18.98;;;;;;;;;;5017757;28;20309;-66
2021/12/23 09:58:36;;;;;;;41.97;20.08;;;;;;;;;;5023781;28;20473;-66
2021/12/23 10:01:04;;;;;;;39.03;19.98;;;;;;;;;;5012831;28;20049;-66
2021/12/23 10:03:31;;;;;;;38.25;18.67;;;;;;;;;;5022913;28;20139;-66
2021/12/23 10:05:59;;;;;;;37.35;19.60;;;;;;;;;;5016979;28;20463;-66
2021/12/23 10:08:27;;;;;;;34.85;18.88;;;;;;;;;;5012418;28;20096;-66
2021/12/23 10:11:24;;;;;;;37.55;19.55;;;;;;;;;;5023549;28;20406;-66
2021/12/23 10:30:05;;;;;;;40.67;20.35;;;;;;;;;;5022962;28;20433;-65
2021/12/23 10:31:25;;;;;;;37.33;18.50;;;;;;;;;;5015334;28;20140;-65
2021/12/23 10:37:13;;;;;;;35.30;18.17;;;;;;;;;;5014076;28;20230;-65
2021/12/23 10:37:14;;;;;;;38.33;18.20;;;;;;;;;;5016811;28;20663;-66
2021/12/23 10:40:03;;;;;;;38.88;20.13;;;;;;;;;;5008324;28;20061;-65
2021/12/23 10:42:30;;;;;;;36.50;18.42;;;;;;;;;;4987988;28;20050;-66
2021/12/23 10:45:16;;;;;;;36.38;19.15;;;;;;;;;;5003285;28;20566;-65
2021/12/23 10:47:58;;;;;;;40.40;19.45;;;;;;;;;;4989753;28;20435;-65
2021/12/23 10:50:32;;;;;;;39.67;17.58;;;;;;;;;;4992099;28;20060;-65
2021/12/23 10:53:03;;;;;;;36.22;19.00;;;;;;;;;;4994719;28;20050;-64
2021/12/23 10:58:16;;;;;;;39.15;19.55;;;;;;;;;;4994810;28;20467;-64
2021/12/23 11:00:45;;;;;;;36.25;17.63;;;;;;;;;;5001350;28;20050;-65
2021/12/23 11:03:26;;;;;;;32.38;16.48;;;;;;;;;;5001274;28;20063;-65
2021/12/23 11:06:00;;;;;;;38.60;18.92;;;;;;;;;;5010192;28;20064;-65
2021/12/23 11:08:37;;;;;;;38.90;18.05;;;;;;;;;;5022561;28;20050;-65
2021/12/23 11:11:32;;;;;;;36.90;18.55;;;;;;;;;;5014404;28;20054;-65
2021/12/23 11:28:40;;;;;;;39.63;19.10;;;;;;;;;;4989565;28;20061;-67
2021/12/23 11:42:14;;;;;;;38.75;18.63;;;;;;;;;;5007709;28;20060;-66
2021/12/23 11:44:34;;;;;;;35.78;18.20;;;;;;;;;;5009646;28;20052;-66
2021/12/23 11:47:07;;;;;;;33.40;16.58;;;;;;;;;;5023017;28;20050;-66
2021/12/23 11:49:35;;;;;;;38.72;18.38;;;;;;;;;;5015566;28;20429;-66
2021/12/23 11:52:02;;;;;;;37.70;18.80;;;;;;;;;;5022931;28;20072;-66
2021/12/23 11:54:30;;;;;;;37.67;18.73;;;;;;;;;;5021785;28;20046;-66
2021/12/23 11:57:03;;;;;;;37.78;19.05;;;;;;;;;;5006933;28;20057;-66
2021/12/23 11:59:35;;;;;;;41.10;18.65;;;;;;;;;;5023329;28;20129;-66
2021/12/23 12:02:10;;;;;;;45.38;18.95;;;;;;;;;;5013599;28;20050;-65
2021/12/23 12:04:37;;;;;;;38.63;17.92;;;;;;;;;;5022871;28;20057;-66
2021/12/23 12:07:20;;;;;;;37.30;18.65;;;;;;;;;;5014604;28;20053;-66
2021/12/23 12:09:54;;;;;;;36.67;18.75;;;;;;;;;;4998433;28;20046;-66
2021/12/23 12:12:22;;;;;;;41.63;19.67;;;;;;;;;;4987843;28;20050;-66
2021/12/23 12:14:48;;;;;;;37.10;17.90;;;;;;;;;;4998033;28;20537;-66
2021/12/23 12:17:26;;;;;;;35.20;17.60;;;;;;;;;;5006381;28;20052;-66
2021/12/23 12:19:58;;;;;;;35.60;18.90;;;;;;;;;;5013849;28;20049;-66
2021/12/23 12:22:43;;;;;;;36.83;18.33;;;;;;;;;;5021316;28;20508;-65
2021/12/23 12:25:10;;;;;;;39.42;18.35;;;;;;;;;;5008804;28;20596;-65
2021/12/23 12:27:38;;;;;;;36.05;17.05;;;;;;;;;;5022037;28;20671;-66
2021/12/23 12:30:06;;;;;;;35.47;18.17;;;;;;;;;;5014675;28;20145;-66
2021/12/23 12:32:34;;;;;;;38.47;17.85;;;;;;;;;;5018199;28;20061;-66
2021/12/23 12:35:09;;;;;;;32.63;14.60;;;;;;;;;;5022705;28;20057;-66
2021/12/23 12:37:43;;;;;;;37.63;17.75;;;;;;;;;;5002558;28;20659;-66
2021/12/23 12:40:09;;;;;;;33.35;16.35;;;;;;;;;;5012279;28;20053;-66
2021/12/23 12:42:40;;;;;;;36.05;17.38;;;;;;;;;;4992763;28;20054;-66
2021/12/23 12:45:12;;;;;;;35.60;16.95;;;;;;;;;;5005487;28;20053;-66
2021/12/23 12:47:47;;;;;;;38.97;18.50;;;;;;;;;;4998903;28;20097;-66
2021/12/23 12:50:16;;;;;;;39.83;19.02;;;;;;;;;;5001631;28;20052;-66
2021/12/23 12:52:43;;;;;;;;;;;;;;;;;;5021382;28;20057;-66
2021/12/23 12:55:09;;;;;;;36.00;17.70;;;;;;;;;;5015517;28;19948;-65
2021/12/23 12:57:39;;;;;;;35.38;16.77;;;;;;;;;;5023229;28;20054;-65
2021/12/23 13:00:28;;;;;;;37.78;16.88;;;;;;;;;;5013185;28;20050;-65
2021/12/23 13:02:56;;;;;;;35.08;16.52;;;;;;;;;;5017322;28;20045;-66
2021/12/23 13:05:28;;;;;;;37.85;17.50;;;;;;;;;;4992497;28;20050;-66
2021/12/23 13:07:54;;;;;;;36.08;16.20;;;;;;;;;;5022822;28;20057;-66
2021/12/23 13:10:26;;;;;;;34.88;17.98;;;;;;;;;;5012087;28;20045;-66
2021/12/23 13:12:54;;;;;;;35.83;17.42;;;;;;;;;;5022436;28;20061;-66
2021/12/23 13:15:23;;;;;;;34.30;18.02;;;;;;;;;;5016115;28;20056;-65
2021/12/23 13:17:58;;;;;;;36.42;17.38;;;;;;;;;;5012435;28;20049;-66
2021/12/23 13:20:33;;;;;;;38.90;18.35;;;;;;;;;;4992745;28;20060;-66
2021/12/23 13:23:01;;;;;;;36.45;17.77;;;;;;;;;;5011705;28;20053;-66
2021/12/23 13:25:28;;;;;;;36.83;17.77;;;;;;;;;;5014592;28;20057;-66
2021/12/23 13:27:54;;;;;;;36.35;19.00;;;;;;;;;;5012519;28;20095;-66
2021/12/23 13:30:21;;;;;;;43.28;18.83;;;;;;;;;;5014498;28;20056;-65
2021/12/23 13:32:57;;;;;;;38.97;18.55;;;;;;;;;;5012639;28;20145;-65
2021/12/23 13:35:24;;;;;;;35.28;18.95;;;;;;;;;;5021434;28;20057;-65
2021/12/23 13:37:50;;;;;;;35.60;18.13;;;;;;;;;;5021637;28;20049;-65
2021/12/23 13:40:30;;;;;;;33.67;16.73;;;;;;;;;;5011301;28;20049;-65
2021/12/23 13:42:56;;;;;;;34.85;18.27;;;;;;;;;;5016594;28;20059;-66
2021/12/23 13:45:23;;;;;;;33.00;16.85;;;;;;;;;;5008334;28;20053;-66
2021/12/23 13:47:54;;;;;;;39.38;18.15;;;;;;;;;;5020330;28;20053;-65
2021/12/23 13:50:21;;;;;;;38.97;19.73;;;;;;;;;;4994213;28;20046;-65
2021/12/23 13:52:49;;;;;;;38.55;19.10;;;;;;;;;;5000886;28;20422;-66
2021/12/23 13:55:25;;;;;;;38.58;18.85;;;;;;;;;;5001638;28;20057;-66
2021/12/23 13:57:54;;;;;;;39.08;17.75;;;;;;;;;;4987394;28;20046;-65
2021/12/23 14:00:39;;;;;;;36.33;16.90;;;;;;;;;;5003491;28;20520;-66
2021/12/23 14:03:14;;;;;;;34.63;17.85;;;;;;;;;;5011428;28;20140;-65
2021/12/23 14:05:42;;;;;;;37.25;17.45;;;;;;;;;;5001300;28;20049;-66
2021/12/23 14:08:09;;;;;;;37.40;18.07;;;;;;;;;;4993331;28;20061;-65
2021/12/23 14:10:41;;;;;;;36.90;18.77;;;;;;;;;;5018736;28;20789;-65
2021/12/23 14:13:10;;;;;;;40.03;19.02;;;;;;;;;;5033833;28;20049;-65
2021/12/23 14:15:39;;;;;;;50.72;20.02;;;;;;;;;;5041803;28;20071;-65
2021/12/23 14:18:17;;;;;;;35.47;19.17;;;;;;;;;;5033855;28;20045;-65
2021/12/23 14:23:25;;;;;;;32.85;17.05;;;;;;;;;;5009343;28;20049;-65
2021/12/23 14:25:51;;;;;;;34.45;17.65;;;;;;;;;;5011986;28;20050;-65
2021/12/23 14:28:31;;;;;;;39.97;18.88;;;;;;;;;;5021471;28;20045;-66
2021/12/23 14:31:03;;;;;;;43.83;19.15;;;;;;;;;;5011759;28;20053;-65
2021/12/23 14:33:34;;;;;;;36.20;19.15;;;;;;;;;;5019996;28;20057;-65
2021/12/23 14:36:03;;;;;;;34.25;18.90;;;;;;;;;;5001648;28;20057;-66
2021/12/23 14:38:35;;;;;;;34.00;15.65;;;;;;;;;;5039512;28;20052;-65
2021/12/23 14:41:19;;;;;;;37.33;18.08;;;;;;;;;;5009544;28;20510;-66
2021/12/23 14:43:55;;;;;;;36.78;17.98;;;;;;;;;;5002066;28;20061;-65
2021/12/23 14:46:22;;;;;;;37.83;18.75;;;;;;;;;;5017977;28;20128;-65
2021/12/23 14:51:30;;;;;;;38.45;18.52;;;;;;;;;;4996850;28;20318;-65
2021/12/23 14:54:10;;;;;;;42.53;19.25;;;;;;;;;;5001783;28;20045;-66
2021/12/23 14:56:37;;;;;;;36.35;18.83;;;;;;;;;;5000538;28;20136;-66
2021/12/23 14:59:09;;;;;;;38.75;19.75;;;;;;;;;;5000374;28;20431;-65
2021/12/23 15:01:37;;;;;;;41.45;19.27;;;;;;;;;;5016823;28;20318;-65
2021/12/23 15:04:06;;;;;;;38.60;18.50;;;;;;;;;;5014951;28;20144;-65
2021/12/23 15:06:33;;;;;;;38.22;18.88;;;;;;;;;;5015915;28;20049;-66
2021/12/23 15:08:59;;;;;;;38.30;17.95;;;;;;;;;;5009998;28;20454;-65
2021/12/23 15:11:27;;;;;;;39.28;19.80;;;;;;;;;;5013651;28;20064;-66
2021/12/23 15:13:53;;;;;;;39.38;20.38;;;;;;;;;;5022182;28;20053;-65
2021/12/23 15:16:22;;;;;;;36.70;19.15;;;;;;;;;;5008186;28;20060;-65
2021/12/23 15:19:14;;;;;;;36.05;17.80;;;;;;;;;;5015242;28;20061;-65
2021/12/23 15:21:44;;;;;;;41.70;19.73;;;;;;;;;;5022931;28;20072;-65
2021/12/23 15:24:17;;;;;;;38.20;19.55;;;;;;;;;;5014622;28;20518;-65
2021/12/23 15:27:02;;;;;;;35.65;18.73;;;;;;;;;;5023298;28;20053;-65